| time (UTC) | temp C | wind direction | speed KPH | gust KPH | rain 1hr cm | rain 24hr cm | rain mn cm | humidity % | barometer mb |
| 20260507212149 | 13 | 315 | 11.3 | 25.7 | 0.00 | 0.56 | 0.94 | 81 | 1002.5 |
| 20260507211128 | 13 | 270 | 16.1 | 27.4 | 0.00 | 0.56 | 0.94 | 80 | 1001.9 |
| 20260507210618 | 13 | 225 | 17.7 | 25.7 | 0.00 | 0.56 | 0.94 | 80 | 1001.8 |
| 20260507210108 | 13 | 270 | 12.9 | 25.7 | 0.00 | 0.56 | 0.94 | 81 | 1002.1 |
| 20260507205558 | 13 | 270 | 16.1 | 24.1 | 0.00 | 0.56 | 0.94 | 81 | 1001.7 |
| 20260507205047 | 13 | 270 | 8.0 | 25.7 | 0.00 | 0.56 | 0.94 | 81 | 1001.6 |
| 20260507204537 | 13 | 270 | 6.4 | 25.7 | 0.00 | 0.56 | 0.94 | 81 | 1001.7 |
| 20260507204028 | 13 | 270 | 17.7 | 27.4 | 0.00 | 0.56 | 0.94 | 80 | 1002.0 |
| 20260507203517 | 13 | 270 | 8.0 | 27.4 | 0.00 | 0.56 | 0.94 | 80 | 1001.9 |
| 20260507203007 | 13 | 270 | 16.1 | 33.8 | 0.00 | 0.56 | 0.94 | 79 | 1002.0 |
| 20260507202457 | 13 | 270 | 19.3 | 38.6 | 0.00 | 0.56 | 0.94 | 78 | 1002.1 |
| 20260507201947 | 13 | 270 | 19.3 | 38.6 | 0.00 | 0.56 | 0.94 | 79 | 1001.1 |
| 20260507201436 | 13 | 225 | 20.9 | 38.6 | 0.00 | 0.56 | 0.94 | 79 | 1001.2 |
| 20260507200926 | 13 | 270 | 24.1 | 38.6 | 0.00 | 0.56 | 0.94 | 78 | 1001.6 |
| 20260507200417 | 13 | 270 | 14.5 | 33.8 | 0.00 | 0.56 | 0.94 | 79 | 1001.1 |
| 20260507195906 | 13 | 270 | 24.1 | 33.8 | 0.00 | 0.56 | 0.94 | 79 | 1001.8 |
| 20260507195357 | 13 | 270 | 17.7 | 33.8 | 0.00 | 0.56 | 0.94 | 80 | 1002.1 |
| 20260507194846 | 14 | 270 | 16.1 | 32.2 | 0.00 | 0.56 | 0.94 | 80 | 1001.7 |
| 20260507193826 | 14 | 270 | 24.1 | 35.4 | 0.00 | 0.56 | 0.94 | 79 | 1000.9 |
| 20260507193317 | 14 | 225 | 24.1 | 37.0 | 0.00 | 0.56 | 0.94 | 78 | 1000.2 |
| 20260507191745 | 14 | 225 | 32.2 | 43.5 | 0.00 | 0.56 | 0.94 | 79 | 1000.2 |
| 20260507191235 | 14 | 225 | 24.1 | 35.4 | 0.00 | 0.56 | 0.94 | 80 | 1000.3 |
| 20260507190725 | 14 | 270 | 22.5 | 38.6 | 0.00 | 0.56 | 0.94 | 79 | 1000.0 |
| 20260507190216 | 14 | 270 | 27.4 | 38.6 | 0.00 | 0.56 | 0.94 | 78 | 999.9 |
| 20260507185705 | 14 | 225 | 30.6 | 43.5 | 0.00 | 0.56 | 0.94 | 78 | 999.9 |
| 20260507185155 | 15 | 180 | 32.2 | 43.5 | 0.00 | 0.56 | 0.94 | 80 | 1000.1 |
| 20260507184645 | 14 | 270 | 27.4 | 41.8 | 0.00 | 0.56 | 0.94 | 81 | 1000.9 |
| 20260507184135 | 14 | 225 | 27.4 | 43.5 | 0.00 | 0.56 | 0.94 | 81 | 1000.4 |
| 20260507183625 | 14 | 270 | 29.0 | 43.5 | 0.00 | 0.56 | 0.94 | 81 | 1001.2 |
| 20260507183114 | 14 | 270 | 24.1 | 51.5 | 0.00 | 0.56 | 0.94 | 81 | 1001.6 |
| 20260507182604 | 14 | 270 | 29.0 | 51.5 | 0.00 | 0.56 | 0.94 | 81 | 1002.3 |
| 20260507182051 | 15 | 270 | 27.4 | 43.5 | 0.00 | 0.56 | 0.94 | 81 | 1002.5 |
| 20260507181541 | 15 | 270 | 20.9 | 40.2 | 0.00 | 0.56 | 0.94 | 82 | 1002.7 |
| 20260507181031 | 15 | 270 | 19.3 | 33.8 | 0.00 | 0.56 | 0.94 | 81 | 1002.1 |
| 20260507180524 | 15 | 270 | 19.3 | 33.8 | 0.00 | 0.56 | 0.94 | 81 | 1001.6 |
| 20260507180013 | 15 | 270 | 20.9 | 35.4 | 0.00 | 0.56 | 0.94 | 81 | 1001.8 |
| 20260507175503 | 15 | 0 | 14.5 | 45.1 | 0.00 | 0.56 | 0.94 | 81 | 1001.8 |
| 20260507174954 | 15 | 270 | 27.4 | 45.1 | 0.00 | 0.56 | 0.94 | 81 | 1002.1 |
| 20260507174443 | 15 | 270 | 29.0 | 43.5 | 0.00 | 0.56 | 0.94 | 81 | 1001.8 |
| 20260507173933 | 15 | 225 | 33.8 | 40.2 | 0.00 | 0.56 | 0.94 | 81 | 1002.3 |
| 20260507172913 | 15 | 270 | 17.7 | 45.1 | 0.00 | 0.56 | 0.94 | 85 | 1002.1 |
| 20260507172402 | 15 | 270 | 27.4 | 49.9 | 0.00 | 0.56 | 0.94 | 85 | 1002.6 |
| 20260507171904 | 15 | 270 | 35.4 | 49.9 | 0.00 | 0.56 | 0.94 | 85 | 1002.3 |
| 20260507171344 | 16 | 270 | 25.7 | 40.2 | 0.00 | 0.56 | 0.94 | 85 | 1002.6 |
| 20260507170833 | 16 | 270 | 24.1 | 38.6 | 0.00 | 0.56 | 0.94 | 82 | 1002.8 |
| 20260507170322 | 16 | 225 | 24.1 | 38.6 | 0.00 | 0.56 | 0.94 | 80 | 1002.9 |
| 20260507165812 | 16 | 270 | 27.4 | 38.6 | 0.00 | 0.56 | 0.94 | 82 | 1002.9 |
| 20260507165306 | 16 | 180 | 16.1 | 38.6 | 0.00 | 0.56 | 0.94 | 84 | 1002.7 |
| 20260507164753 | 16 | 270 | 16.1 | 38.6 | 0.00 | 0.56 | 0.94 | 84 | 1002.9 |
| 20260507164242 | 16 | 270 | 19.3 | 38.6 | 0.00 | 0.56 | 0.94 | 84 | 1002.9 |
| 20260507163733 | 16 | 270 | 25.7 | 43.5 | 0.00 | 0.56 | 0.94 | 83 | 1002.6 |
| 20260507163222 | 17 | 270 | 25.7 | 43.5 | 0.00 | 0.56 | 0.94 | 83 | 1002.5 |
| 20260507162201 | 17 | 180 | 0.0 | 46.7 | 0.00 | 0.56 | 0.94 | 85 | 1013.9 |
| 20260507161651 | 17 | 225 | 35.4 | 46.7 | 0.00 | 0.56 | 0.64 | 84 | 1001.7 |
| 20260507161142 | 17 | 270 | 24.1 | 41.8 | 0.00 | 0.56 | 0.64 | 85 | 1001.5 |
| 20260507160632 | 17 | 270 | 24.1 | 32.2 | 0.00 | 0.56 | 0.64 | 85 | 1001.5 |
| 20260507155102 | 17 | 270 | 11.3 | 33.8 | 0.00 | 0.56 | 0.64 | 88 | 1002.3 |
| 20260507154551 | 17 | 270 | 22.5 | 33.8 | 0.00 | 0.56 | 0.64 | 88 | 1001.7 |
| 20260507154040 | 17 | 270 | 27.4 | 33.8 | 0.00 | 0.56 | 0.64 | 89 | 1001.0 |
| 20260507153530 | 17 | 270 | 20.9 | 30.6 | 0.00 | 0.56 | 0.64 | 89 | 1001.1 |
| 20260507153021 | 17 | 225 | 20.9 | 41.8 | 0.00 | 0.56 | 0.64 | 88 | 1000.7 |
| 20260507152510 | 16 | 225 | 30.6 | 41.8 | 0.00 | 0.56 | 0.64 | 88 | 1000.3 |
| 20260507151450 | 16 | 180 | 12.9 | 27.4 | 0.00 | 0.56 | 0.64 | 89 | 999.7 |
| 20260507150940 | 17 | 225 | 9.7 | 30.6 | 0.00 | 0.56 | 0.64 | 89 | 1000.0 |
| 20260507145919 | 17 | 225 | 24.1 | 33.8 | 0.00 | 0.56 | 0.64 | 87 | 1000.5 |
| 20260507144859 | 17 | 180 | 25.7 | 27.4 | 0.00 | 0.56 | 0.64 | 87 | 999.7 |
| 20260507143839 | 17 | 180 | 16.1 | 25.7 | 0.00 | 0.56 | 0.64 | 86 | 1000.7 |
| 20260507143329 | 17 | 180 | 17.7 | 24.1 | 0.00 | 0.56 | 0.64 | 87 | 1000.6 |
| 20260507142828 | 17 | 180 | 12.9 | 20.9 | 0.00 | 0.56 | 0.64 | 88 | 1001.1 |
| 20260507141759 | 17 | 225 | 14.5 | 33.8 | 0.00 | 0.56 | 0.64 | 88 | 1001.3 |
| 20260507141248 | 17 | 225 | 14.5 | 37.0 | 0.00 | 0.56 | 0.64 | 89 | 1001.0 |
| 20260507140738 | 17 | 225 | 25.7 | 45.1 | 0.00 | 0.56 | 0.64 | 87 | 1000.3 |
| 20260507140228 | 17 | 180 | 35.4 | 45.1 | 0.00 | 0.56 | 0.64 | 87 | 1000.4 |
| 20260507135718 | 17 | 180 | 32.2 | 40.2 | 0.00 | 0.56 | 0.64 | 87 | 1000.3 |
| 20260507135208 | 17 | 180 | 24.1 | 38.6 | 0.00 | 0.56 | 0.64 | 87 | 1000.6 |
| 20260507134659 | 17 | 180 | 27.4 | 38.6 | 0.00 | 0.56 | 0.64 | 88 | 1000.4 |
| 20260507134148 | 17 | 135 | 25.7 | 43.5 | 0.00 | 0.56 | 0.64 | 89 | 1000.7 |
| 20260507133638 | 17 | 180 | 29.0 | 48.3 | 0.00 | 0.56 | 0.64 | 90 | 1000.7 |
| 20260507133128 | 17 | 225 | 30.6 | 54.7 | 0.00 | 0.56 | 0.64 | 90 | 1001.1 |
| 20260507132618 | 16 | 270 | 40.2 | 54.7 | 0.00 | 0.56 | 0.64 | 90 | 1001.2 |
| 20260507132108 | 16 | 180 | 30.6 | 54.7 | 0.03 | 0.56 | 0.64 | 90 | 1000.9 |
| 20260507131047 | 16 | 225 | 45.1 | 54.7 | 0.13 | 0.56 | 0.64 | 92 | 1000.9 |
| 20260507130538 | 16 | 270 | 19.3 | 43.5 | 0.13 | 0.56 | 0.64 | 92 | 1002.8 |
| 20260507130027 | 16 | 225 | 19.3 | 43.5 | 0.15 | 0.56 | 0.64 | 92 | 1002.9 |
| 20260507125517 | 16 | 225 | 33.8 | 43.5 | 0.15 | 0.56 | 0.64 | 92 | 1001.5 |
| 20260507125007 | 17 | 225 | 29.0 | 40.2 | 0.18 | 0.56 | 0.64 | 93 | 1001.1 |
| 20260507124456 | 17 | 225 | 20.9 | 27.4 | 0.18 | 0.56 | 0.64 | 93 | 1001.8 |
| 20260507123947 | 17 | 270 | 14.5 | 24.1 | 0.18 | 0.56 | 0.64 | 93 | 1002.8 |
| 20260507123437 | 17 | 270 | 16.1 | 27.4 | 0.20 | 0.56 | 0.64 | 93 | 1002.7 |
| 20260507122926 | 17 | 180 | 17.7 | 27.4 | 0.28 | 0.56 | 0.64 | 93 | 1001.5 |
| 20260507122416 | 17 | 180 | 17.7 | 29.0 | 0.46 | 0.56 | 0.64 | 93 | 1001.5 |
| 20260507121906 | 17 | 180 | 12.9 | 30.6 | 0.48 | 0.53 | 0.61 | 93 | 1002.0 |
| 20260507121356 | 17 | 225 | 24.1 | 30.6 | 0.43 | 0.46 | 0.51 | 93 | 1002.2 |
| 20260507120847 | 17 | 270 | 17.7 | 41.8 | 0.43 | 0.46 | 0.51 | 93 | 1002.2 |
| 20260507115315 | 17 | 270 | 27.4 | 35.4 | 0.38 | 0.43 | 0.48 | 93 | 1001.4 |
| 20260507114809 | 17 | 225 | 19.3 | 35.4 | 0.36 | 0.38 | 0.46 | 93 | 1001.3 |
| 20260507114255 | 17 | 270 | 11.3 | 37.0 | 0.36 | 0.38 | 0.46 | 93 | 1001.2 |
| 20260507113236 | 17 | 270 | 19.3 | 27.4 | 0.30 | 0.33 | 0.43 | 94 | 1001.2 |
| 20260507112725 | 17 | 180 | 20.9 | 25.7 | 0.20 | 0.23 | 0.30 | 94 | 1000.3 |
| 20260507112215 | 17 | 0 | 6.4 | 24.1 | 0.03 | 0.05 | 0.13 | 93 | 1002.7 |
| 20260507111706 | 17 | 270 | 14.5 | 27.4 | 0.03 | 0.05 | 0.13 | 94 | 1001.6 |
| 20260507111155 | 17 | 225 | 12.9 | 32.2 | 0.00 | 0.03 | 0.10 | 94 | 1000.7 |
| 20260507110645 | 17 | 180 | 17.7 | 32.2 | 0.00 | 0.03 | 0.10 | 94 | 999.3 |
| 20260507110134 | 17 | 225 | 24.1 | 32.2 | 0.00 | 0.03 | 0.10 | 94 | 999.5 |
| 20260507105624 | 17 | 180 | 22.5 | 27.4 | 0.00 | 0.03 | 0.10 | 94 | 998.9 |
| 20260507105114 | 17 | 180 | 12.9 | 27.4 | 0.00 | 0.03 | 0.10 | 94 | 999.2 |
| 20260507104054 | 17 | 270 | 17.7 | 27.4 | 0.00 | 0.03 | 0.10 | 95 | 999.7 |
| 20260507103545 | 17 | 225 | 19.3 | 29.0 | 0.00 | 0.03 | 0.10 | 95 | 999.0 |
| 20260507103034 | 17 | 225 | 17.7 | 29.0 | 0.00 | 0.03 | 0.10 | 95 | 998.2 |
| 20260507102524 | 17 | 225 | 19.3 | 25.7 | 0.00 | 0.03 | 0.10 | 95 | 997.3 |
| 20260507102013 | 17 | 180 | 9.7 | 14.5 | 0.00 | 0.03 | 0.10 | 95 | 998.3 |
| 20260507101503 | 17 | 90 | 1.6 | 17.7 | 0.00 | 0.03 | 0.10 | 95 | 998.4 |
| 20260507100953 | 17 | 90 | 3.2 | 17.7 | 0.00 | 0.03 | 0.10 | 95 | 997.9 |
| 20260507100443 | 17 | 135 | 12.9 | 17.7 | 0.00 | 0.03 | 0.10 | 95 | 997.5 |
| 20260507095933 | 17 | 90 | 12.9 | 17.7 | 0.00 | 0.03 | 0.10 | 95 | 996.7 |
| 20260507095427 | 17 | 180 | 12.9 | 17.7 | 0.03 | 0.03 | 0.10 | 95 | 997.3 |
| 20260507094403 | 17 | 135 | 9.7 | 17.7 | 0.03 | 0.03 | 0.10 | 94 | 997.0 |
| 20260507093853 | 17 | 180 | 6.4 | 14.5 | 0.03 | 0.03 | 0.10 | 94 | 996.9 |
| 20260507093343 | 17 | 180 | 6.4 | 9.7 | 0.03 | 0.03 | 0.10 | 94 | 997.1 |
| 20260507092832 | 17 | 180 | 3.2 | 8.0 | 0.03 | 0.03 | 0.10 | 94 | 997.7 |
| 20260507091302 | 17 | 0 | 9.7 | 16.1 | 0.03 | 0.03 | 0.10 | 94 | 998.5 |
| 20260507090751 | 17 | 0 | 1.6 | 12.9 | 0.03 | 0.03 | 0.10 | 94 | 998.4 |
| 20260507090242 | 17 | 90 | 6.4 | 17.7 | 0.03 | 0.03 | 0.10 | 94 | 997.9 |
| 20260507085731 | 17 | 90 | 4.8 | 20.9 | 0.00 | 0.00 | 0.10 | 94 | 997.6 |
| 20260507085221 | 17 | 135 | 14.5 | 25.7 | 0.00 | 0.00 | 0.05 | 93 | 997.5 |
| 20260507084711 | 17 | 90 | 12.9 | 27.4 | 0.00 | 0.00 | 0.05 | 93 | 997.3 |
| 20260507084201 | 17 | 135 | 17.7 | 27.4 | 0.00 | 0.00 | 0.05 | 93 | 997.1 |
| 20260507083651 | 17 | 90 | 6.4 | 11.3 | 0.00 | 0.00 | 0.05 | 93 | 997.7 |
| 20260507064925 | 23 | 225 | 62.8 | 93.3 | 0.05 | 0.05 | 0.05 | 85 | 1000.3 |
| 20260507064415 | 24 | 315 | 14.5 | 32.2 | 0.03 | 0.03 | 0.03 | 85 | 999.1 |
| 20260507062845 | 25 | 0 | 11.3 | 33.8 | 0.00 | 0.00 | 0.00 | 83 | 999.3 |
| 20260507061824 | 25 | 0 | 6.4 | 37.0 | 0.00 | 0.00 | 0.00 | 82 | 999.2 |
| 20260507061314 | 25 | 315 | 20.9 | 33.8 | 0.00 | 0.00 | 0.00 | 82 | 999.2 |
| 20260507060804 | 25 | 270 | 19.3 | 0.0 | 0.00 | 0.00 | 0.00 | 82 | 999.1 |
| 20260507060158 | 24 | 315 | 14.5 | 0.0 | 0.00 | 0.00 | 0.00 | 82 | 998.5 |
| 20260507060001 | 24 | 315 | 14.5 | 27.4 | 0.00 | 0.00 | 0.00 | 82 | 998.5 |
| 20260507055444 | 24 | 0 | 16.1 | 27.4 | 0.00 | 0.00 | 0.00 | 82 | 998.4 |
| 20260507054934 | 24 | 0 | 12.9 | 27.4 | 0.00 | 0.00 | 0.00 | 82 | 998.6 |
| 20260507054425 | 24 | 0 | 12.9 | 29.0 | 0.00 | 0.00 | 0.00 | 82 | 998.6 |
| 20260507053915 | 24 | 315 | 16.1 | 29.0 | 0.00 | 0.00 | 0.00 | 82 | 998.9 |
| 20260507052344 | 24 | 270 | 11.3 | 25.7 | 0.00 | 0.00 | 0.00 | 83 | 999.3 |
| 20260507051834 | 24 | 315 | 17.7 | 30.6 | 0.00 | 0.00 | 0.00 | 82 | 999.4 |
| 20260507050813 | 24 | 0 | 9.7 | 37.0 | 0.00 | 0.00 | 0.00 | 82 | 999.3 |
| 20260507050304 | 24 | 0 | 11.3 | 30.6 | 0.00 | 0.00 | 0.00 | 83 | 998.9 |
| 20260507045753 | 24 | 0 | 12.9 | 41.8 | 0.00 | 0.00 | 0.00 | 83 | 998.7 |
| 20260507045243 | 24 | 0 | 12.9 | 41.8 | 0.00 | 0.00 | 0.00 | 83 | 998.2 |
| 20260507044222 | 24 | 0 | 19.3 | 37.0 | 0.00 | 0.00 | 0.00 | 83 | 998.6 |
| 20260507043713 | 24 | 0 | 12.9 | 33.8 | 0.00 | 0.00 | 0.00 | 83 | 998.5 |
| 20260507043203 | 24 | 0 | 12.9 | 41.8 | 0.00 | 0.00 | 0.00 | 83 | 998.6 |
| 20260507042653 | 24 | 0 | 14.5 | 41.8 | 0.00 | 0.00 | 0.00 | 83 | 998.5 |
| 20260507042143 | 24 | 0 | 16.1 | 33.8 | 0.00 | 0.00 | 0.00 | 83 | 998.4 |
| 20260507041633 | 24 | 0 | 11.3 | 30.6 | 0.00 | 0.00 | 0.00 | 84 | 998.1 |
| 20260507041123 | 24 | 270 | 6.4 | 30.6 | 0.00 | 0.00 | 0.00 | 84 | 998.3 |
| 20260507040059 | 24 | 270 | 14.5 | 30.6 | 0.00 | 0.00 | 0.00 | 83 | 999.1 |
| 20260507035551 | 24 | 0 | 16.1 | 32.2 | 0.00 | 0.00 | 0.00 | 83 | 999.4 |
| 20260507034532 | 23 | 0 | 9.7 | 27.4 | 0.00 | 0.00 | 0.00 | 84 | 999.5 |
| 20260507034022 | 23 | 0 | 12.9 | 33.8 | 0.00 | 0.00 | 0.00 | 84 | 999.7 |
| 20260507033511 | 23 | 0 | 16.1 | 33.8 | 0.00 | 0.00 | 0.00 | 84 | 999.4 |
| 20260507033001 | 23 | 0 | 14.5 | 24.1 | 0.00 | 0.00 | 0.00 | 85 | 999.7 |
| 20260507032451 | 23 | 270 | 6.4 | 33.8 | 0.00 | 0.00 | 0.00 | 85 | 999.8 |
| 20260507031941 | 23 | 315 | 8.0 | 33.8 | 0.00 | 0.00 | 0.00 | 85 | 1000.0 |
| 20260507031430 | 23 | 0 | 6.4 | 24.1 | 0.00 | 0.00 | 0.00 | 85 | 1000.2 |
| 20260507030921 | 23 | 0 | 11.3 | 24.1 | 0.00 | 0.00 | 0.00 | 85 | 1000.4 |
| 20260507030410 | 23 | 0 | 11.3 | 20.9 | 0.00 | 0.00 | 0.00 | 86 | 1000.4 |
| 20260507025351 | 23 | 0 | 4.8 | 19.3 | 0.00 | 0.00 | 0.03 | 85 | 1000.5 |
| 20260507024841 | 23 | 0 | 3.2 | 20.9 | 0.00 | 0.00 | 0.03 | 85 | 1000.4 |
| 20260507022800 | 23 | 0 | 11.3 | 20.9 | 0.00 | 0.00 | 0.03 | 85 | 1000.6 |
| 20260507022249 | 24 | 0 | 6.4 | 20.9 | 0.00 | 0.00 | 0.03 | 85 | 1000.7 |
| 20260507021739 | 24 | 0 | 9.7 | 27.4 | 0.00 | 0.00 | 0.03 | 85 | 1000.8 |
| 20260507021230 | 24 | 0 | 6.4 | 27.4 | 0.00 | 0.00 | 0.03 | 84 | 1000.9 |
| 20260507020720 | 24 | 0 | 11.3 | 20.9 | 0.00 | 0.00 | 0.03 | 84 | 1000.8 |
| 20260507015659 | 24 | 0 | 6.4 | 24.1 | 0.00 | 0.00 | 0.03 | 83 | 1001.2 |
| 20260507015149 | 25 | 0 | 12.9 | 24.1 | 0.00 | 0.00 | 0.03 | 83 | 1001.2 |
| 20260507014639 | 25 | 315 | 12.9 | 24.1 | 0.00 | 0.00 | 0.03 | 83 | 1001.2 |
| 20260507014129 | 25 | 270 | 8.0 | 25.7 | 0.00 | 0.00 | 0.03 | 83 | 1001.4 |
| 20260507013619 | 25 | 0 | 11.3 | 25.7 | 0.00 | 0.00 | 0.03 | 83 | 1001.3 |
| 20260507013108 | 25 | 0 | 12.9 | 27.4 | 0.00 | 0.00 | 0.03 | 83 | 1001.2 |
| 20260507012049 | 25 | 0 | 9.7 | 25.7 | 0.00 | 0.00 | 0.03 | 83 | 1001.6 |
| 20260507011538 | 25 | 135 | 12.9 | 27.4 | 0.00 | 0.00 | 0.03 | 82 | 1001.5 |
| 20260507010012 | 25 | 45 | 14.5 | 32.2 | 0.00 | 0.00 | 0.03 | 82 | 1001.8 |
| 20260507005458 | 25 | 0 | 12.9 | 37.0 | 0.00 | 0.00 | 0.03 | 82 | 1001.6 |
| 20260507004947 | 25 | 315 | 14.5 | 37.0 | 0.00 | 0.00 | 0.03 | 82 | 1001.8 |
| 20260507004438 | 25 | 0 | 9.7 | 24.1 | 0.00 | 0.00 | 0.03 | 82 | 1001.9 |
| 20260507003928 | 25 | 0 | 12.9 | 27.4 | 0.00 | 0.00 | 0.03 | 82 | 1001.9 |
| 20260507002907 | 25 | 90 | 3.2 | 25.7 | 0.00 | 0.00 | 0.03 | 82 | 1001.9 |
| 20260507001906 | 25 | 0 | 12.9 | 33.8 | 0.00 | 0.00 | 0.03 | 81 | 1001.9 |
| 20260507001336 | 25 | 315 | 9.7 | 27.4 | 0.00 | 0.00 | 0.03 | 81 | 1001.7 |
| 20260507000839 | 25 | 315 | 9.7 | 27.4 | 0.00 | 0.00 | 0.03 | 81 | 1001.7 |
| 20260507000317 | 25 | 0 | 14.5 | 32.2 | 0.00 | 0.00 | 0.03 | 82 | 1001.8 |
| 20260506235257 | 25 | 0 | 8.0 | 27.4 | 0.00 | 0.00 | 0.03 | 83 | 1001.6 |
| 20260506234746 | 25 | 45 | 12.9 | 30.6 | 0.00 | 0.00 | 0.03 | 84 | 1001.5 |
| 20260506234236 | 25 | 0 | 12.9 | 30.6 | 0.00 | 0.00 | 0.03 | 84 | 1001.5 |
| 20260506233726 | 25 | 0 | 11.3 | 27.4 | 0.00 | 0.00 | 0.03 | 84 | 1001.5 |
| 20260506233216 | 25 | 0 | 14.5 | 25.7 | 0.00 | 0.00 | 0.03 | 84 | 1001.8 |
| 20260506232707 | 25 | 45 | 11.3 | 25.7 | 0.00 | 0.00 | 0.03 | 84 | 1001.8 |
| 20260506232156 | 25 | 0 | 11.3 | 24.1 | 0.00 | 0.00 | 0.03 | 83 | 1002.2 |
| 20260506231645 | 25 | 180 | 11.3 | 24.1 | 0.00 | 0.00 | 0.03 | 83 | 1002.3 |
| 20260506231135 | 25 | 0 | 11.3 | 24.1 | 0.00 | 0.00 | 0.03 | 82 | 1002.4 |
| 20260506230115 | 25 | 0 | 4.8 | 22.5 | 0.00 | 0.00 | 0.03 | 82 | 1002.6 |
| 20260506225605 | 26 | 270 | 8.0 | 22.5 | 0.00 | 0.00 | 0.03 | 81 | 1002.6 |
| 20260506225055 | 26 | 45 | 8.0 | 24.1 | 0.00 | 0.00 | 0.03 | 81 | 1002.6 |
| 20260506224545 | 26 | 0 | 6.4 | 24.1 | 0.00 | 0.00 | 0.03 | 80 | 1002.5 |
| 20260506223525 | 26 | 270 | 1.6 | 25.7 | 0.00 | 0.00 | 0.03 | 79 | 1002.4 |
| 20260506223015 | 26 | 0 | 8.0 | 25.7 | 0.00 | 0.00 | 0.03 | 78 | 1002.4 |
| 20260506221954 | 26 | 0 | 11.3 | 24.1 | 0.00 | 0.00 | 0.03 | 78 | 1002.2 |
| 20260506221445 | 26 | 45 | 9.7 | 24.1 | 0.00 | 0.00 | 0.03 | 78 | 1002.5 |
| 20260506220424 | 27 | 0 | 6.4 | 24.1 | 0.00 | 0.00 | 0.03 | 77 | 1002.3 |
| 20260506215914 | 27 | 0 | 12.9 | 27.4 | 0.00 | 0.00 | 0.03 | 77 | 1002.5 |
| 20260506214854 | 27 | 0 | 11.3 | 24.1 | 0.00 | 0.00 | 0.03 | 77 | 1002.2 |
| 20260506214344 | 27 | 0 | 3.2 | 24.1 | 0.00 | 0.00 | 0.03 | 77 | 1002.4 |
| 20260506213833 | 27 | 90 | 6.4 | 24.1 | 0.00 | 0.00 | 0.03 | 76 | 1002.4 |
| 20260506213323 | 27 | 0 | 14.5 | 24.1 | 0.00 | 0.00 | 0.03 | 76 | 1002.4 |
| 20260506212814 | 27 | 0 | 9.7 | 20.9 | 0.00 | 0.00 | 0.03 | 76 | 1002.3 |